nws-alerts: Checking more than four warning/county codes can delay the loading of your pages. You should use a cron job to get the data.

Nearby METAR Reports

 

KOXC - Oxford/Waterbury, Connecticut, USA
Distance from station: NW 7mi, 11km
Updated: 01/28/2021 6:51am
Overcast
Overcast
 Wind from NNW
Wind: NNW 13 mph , 20 km/h
Temperature: 25°F , -4°C
Wind Chill: 13°F , -11°C
Dew Point: 18°F , -8°C
Humidity: 74%
Barometer: 30.00 inHg , 1015.9 hPa
Clouds: Overcast
Visibility: 10 miles , 16 km
Cloud details: Overcast 4000 ft
2021/01/28 11:51 KOXC 281151Z 34011KT 10SM OVC040 M04/M08 A3000 RMK AO2 SLP180 T10391078 11033 21044 53000
KHVN - New Haven/Tweed, Connecticut, USA
Distance from station: SE 13mi, 20km
Updated: 01/28/2021 6:53am
Overcast
Overcast
 Wind from NNW
Wind: NNW 13 mph , 20 km/h, Gust: 21 mph , 33 km/h
Temperature: 30°F , -1°C
Wind Chill: 20°F , -7°C
Dew Point: 19°F , -7°C
Humidity: 64%
Barometer: 30.01 inHg , 1016.3 hPa
Clouds: Overcast
Visibility: 10 miles , 16 km
Cloud details: Overcast 4800 ft
2021/01/28 11:53 KHVN 281153Z 34011G18KT 10SM OVC048 M01/M07 A3001 RMK AO2 SLP161 T10111067 10000 21011 55002
 
KMMK - Meriden, Connecticut, USA
Distance from station: NE 13mi, 21km
Updated: 01/28/2021 6:53am
Overcast
Overcast
 Wind from NNW
Wind: NNW 10 mph , 17 km/h
Temperature: 28°F , -2°C
Wind Chill: 19°F , -7°C
Dew Point: 19°F , -7°C
Humidity: 69%
Barometer: 30.03 inHg , 1016.9 hPa
Clouds: Overcast
Visibility: 10 miles , 16 km
Cloud details: Overcast 5000 ft
2021/01/28 11:53 KMMK 281153Z AUTO 34009KT 10SM OVC050 M02/M07 A3003 RMK AO2 SLP169 T10221072 11011 21028 56003
KBDR - Bridgeport, Connecticut, USA
Distance from station: SSW 17mi, 27km
Updated: 01/28/2021 6:52am
Overcast
Overcast
 Wind from NNW
Wind: NNW 13 mph , 20 km/h, Gust: 18 mph , 30 km/h
Temperature: 30°F , -1°C
Wind Chill: 20°F , -7°C
Dew Point: 18°F , -8°C
Humidity: 59%
Barometer: 30.02 inHg , 1016.6 hPa
Clouds: Overcast
Visibility: 10 miles , 16 km
Cloud details: Overcast 4500 ft
2021/01/28 11:52 KBDR 281152Z 34011G16KT 10SM OVC045 M01/M08 A3002 RMK AO2 SLP167 T10111083 11006 21011 55001
 
KDXR - Danbury, Connecticut, USA
Distance from station: W 23mi, 38km
Updated: 01/28/2021 6:53am
Overcast
Overcast
 Wind from varies
Wind: varies 7 mph , 11 km/h
Temperature: 27°F , -3°C
Wind Chill: 19°F , -7°C
Dew Point: 14°F , -10°C
Humidity: 59%
Barometer: 30.04 inHg , 1017.3 hPa
Clouds: Overcast
Visibility: 10 miles , 16 km
Cloud details: Overcast 3600 ft
2021/01/28 11:53 KDXR 281153Z VRB06KT 10SM OVC036 M03/M10 A3004 RMK AO2 SLP176 T10331100 11022 21033 53001